Create Tblcommutelog Verified Points Advance Search
| # | Trip ID | Id Commuter | Trip Date | Trip Num | Current Lat | Current Lng | Delta Distance | Current Time | Activity | Activity Confidence | Current Speed | |
|---|---|---|---|---|---|---|---|---|---|---|---|---|
| 71461 | 251205_746083_16423284_0636 | 746083 | (not set) | (not set) | 38.88484193536 | -77.026274369275 | 19.6381 | 2025-12-05 07:16:23 | unknown | 100 | 5.4807013151895 | |
| 71462 | 251205_788381_16460160_0715 | 788381 | (not set) | (not set) | 38.855986470498 | -76.913931417337 | 0.273 | 2025-12-05 07:16:37 | still | 33 | 7.2375656030113 | |
| 71463 | 251205_784252_16652453_0652 | 784252 | (not set) | (not set) | 39.404366609114 | -77.349370033952 | 9.1778 | 2025-12-05 07:16:50 | in_vehicle | 100 | 12.289109229573 | |
| 71464 | 251205_784252_16652453_0652 | 784252 | (not set) | (not set) | 39.403498047041 | -77.345889042704 | 9.3736 | 2025-12-05 07:17:02 | in_vehicle | 100 | 11.189392652463 | |
| 71465 | 251205_788116_16505268_0629 | 788116 | (not set) | (not set) | 38.794165246311 | -77.148449442871 | 37.6783 | 2025-12-05 07:17:15 | unknown | 100 | 12.36957629619 | |
| 71466 | 251205_762844_16460442_0630 | 762844 | (not set) | (not set) | 39.161764013325 | -76.697373211091 | 13.1987 | 2025-12-05 07:05:06 | in_vehicle | 100 | 18.58342199612 | |
| 71467 | 251205_790094_16496156_0634 | 790094 | (not set) | (not set) | 38.90109889361 | -77.035251898957 | 12.8706 | 2025-12-05 07:05:18 | in_vehicle | 100 | -0.44703925898772 | |
| 71468 | 251205_729454_6428116_0705 | 729454 | (not set) | (not set) | 38.901491 | -77.0297039 | 0 | 2025-12-05 07:05:27 | still | 100 | 0.16093413323558 | |
| 71469 | 251205_783088_16490204_0703 | 783088 | (not set) | (not set) | 38.785355416193 | -77.235071778559 | 0.2556 | 2025-12-05 07:05:38 | in_vehicle | 100 | 5.3823526782122 | |
| 71470 | 251205_789037_16497608_0654 | 789037 | (not set) | (not set) | 38.92161468428 | -76.717571062423 | 8.2922 | 2025-12-05 07:05:53 | in_vehicle | 100 | 8.8200845798278 | |
| 71471 | 251205_746083_16423284_0636 | 746083 | (not set) | (not set) | 38.814359701099 | -77.053827015017 | 14.1597 | 2025-12-05 07:06:10 | unknown | 100 | 7.7069568249484 | |
| 71472 | 251205_729454_6428116_0705 | 729454 | (not set) | (not set) | 38.8995069 | -77.0297002 | 0.1351 | 2025-12-05 07:06:21 | still | 100 | -0.44703925898772 | |
| 71473 | 251205_789883_16514514_0636 | 789883 | (not set) | (not set) | 39.010024407864 | -76.912203521578 | 9.552 | 2025-12-05 07:06:34 | in_vehicle | 100 | 4.0948796123276 | |
| 71474 | 251205_784875_16514072_0626 | 784875 | (not set) | (not set) | 39.120025056155 | -77.163837364619 | 17.5592 | 2025-12-05 07:06:46 | on_foot | 100 | 0.54538789596502 | |
| 71475 | 251205_788116_16505268_0629 | 788116 | (not set) | (not set) | 38.882940054916 | -77.229010177619 | 27.3259 | 2025-12-05 07:06:58 | unknown | 100 | 7.9707099877511 | |
| 71476 | 251205_770872_16486958_0706 | 770872 | (not set) | (not set) | 39.1585362 | -76.8289621 | 0.5589 | 2025-12-05 07:07:12 | in_vehicle | 100 | 10.970343415559 | |
| 71477 | 251205_729454_6428116_0705 | 729454 | (not set) | (not set) | 38.8973986 | -77.0279303 | 0.355 | 2025-12-05 07:07:25 | still | 100 | 3.2097418795319 | |
| 71478 | 251205_788956_16505268_0623 | 788956 | (not set) | (not set) | 38.886061661036 | -77.220382176692 | 28.6865 | 2025-12-05 07:07:41 | in_vehicle | 100 | 7.318032669629 | |
| 71479 | 251205_774041_16511857_0706 | 774041 | (not set) | (not set) | 39.0220868 | -77.0020451 | 0.0319 | 2025-12-05 07:07:54 | still | 100 | 3.5852548570815 | |
| 71480 | 251205_789839_16472497_0600 | 789839 | (not set) | (not set) | 38.899909166464 | -77.049052744718 | 40.1216 | 2025-12-05 07:08:10 | on_foot | 100 | 0.57668064409416 |